createdAt,value
2018-09-13T00:02:10.281Z,14.13
2018-09-13T00:04:39.103Z,8.03
2018-09-13T00:07:07.393Z,4.20
2018-09-13T00:09:35.681Z,13.00
2018-09-13T00:12:03.998Z,11.55
2018-09-13T00:14:32.294Z,9.23
2018-09-13T00:17:00.594Z,9.03
2018-09-13T00:19:28.848Z,13.72
2018-09-13T00:21:57.210Z,13.70
2018-09-13T00:24:25.456Z,13.35
2018-09-13T00:26:53.720Z,14.85
2018-09-13T00:29:22.028Z,15.37
2018-09-13T00:31:50.284Z,16.23
2018-09-13T00:34:18.588Z,16.05
2018-09-13T00:36:46.957Z,15.93
2018-09-13T00:39:15.204Z,16.12
2018-09-13T00:41:43.519Z,16.32
2018-09-13T00:44:11.926Z,14.50
2018-09-13T00:46:40.204Z,15.65
2018-09-13T00:49:08.436Z,15.95
2018-09-13T00:51:36.715Z,17.17
2018-09-13T00:54:05.013Z,18.27
2018-09-13T00:56:33.323Z,17.25
2018-09-13T00:59:01.649Z,17.10
2018-09-13T01:01:30.974Z,62.37
2018-09-13T01:03:59.215Z,18.90
2018-09-13T01:06:27.498Z,19.07
2018-09-13T01:08:55.747Z,20.03
2018-09-13T01:11:24.017Z,17.97
2018-09-13T01:13:52.312Z,14.67
2018-09-13T01:16:20.619Z,17.05
2018-09-13T01:18:48.883Z,16.03
2018-09-13T01:21:17.168Z,19.17
2018-09-13T01:23:45.441Z,15.98
2018-09-13T01:26:13.716Z,17.53
2018-09-13T01:28:42.963Z,17.50
2018-09-13T01:31:11.234Z,14.85
2018-09-13T01:33:39.497Z,15.97
2018-09-13T01:36:08.675Z,15.07
2018-09-13T01:38:36.984Z,18.70
2018-09-13T01:41:06.333Z,17.97
2018-09-13T01:43:34.620Z,17.93
2018-09-13T01:46:02.887Z,16.93
2018-09-13T01:48:31.136Z,17.67
2018-09-13T01:50:59.396Z,16.13
2018-09-13T01:53:27.694Z,16.77
2018-09-13T01:55:55.965Z,17.90
2018-09-13T01:58:24.216Z,38.17
2018-09-13T02:00:52.515Z,15.88
2018-09-13T02:03:20.775Z,15.67
2018-09-13T02:05:49.069Z,18.20
2018-09-13T02:08:17.322Z,18.05
2018-09-13T02:10:45.568Z,17.13
2018-09-13T02:13:13.972Z,19.43
2018-09-13T02:15:42.247Z,17.92
2018-09-13T02:18:10.735Z,16.00
2018-09-13T02:20:39.966Z,16.07
2018-09-13T02:23:08.310Z,16.50
2018-09-13T02:25:36.601Z,18.27
2018-09-13T02:28:04.987Z,17.17
2018-09-13T02:30:33.292Z,15.40
2018-09-13T02:33:01.614Z,14.80
2018-09-13T02:35:29.893Z,17.17
2018-09-13T02:37:58.208Z,16.10
2018-09-13T02:40:26.466Z,15.17
2018-09-13T02:42:54.729Z,16.97
2018-09-13T02:45:23.003Z,16.07
2018-09-13T02:47:51.261Z,18.80
2018-09-13T02:50:19.564Z,17.87
2018-09-13T02:52:47.811Z,19.83
2018-09-13T02:55:16.063Z,20.83
2018-09-13T02:57:44.340Z,18.05
2018-09-13T03:00:12.612Z,20.23
2018-09-13T03:02:40.868Z,18.63
2018-09-13T03:05:09.206Z,18.52
2018-09-13T03:07:37.550Z,18.17
2018-09-13T03:10:05.811Z,17.10
2018-09-13T03:12:34.094Z,16.80
2018-09-13T03:15:02.349Z,10.10
2018-09-13T03:17:30.660Z,16.13
2018-09-13T03:19:58.929Z,17.10
2018-09-13T03:22:27.234Z,16.60
2018-09-13T03:24:55.577Z,17.63
2018-09-13T03:27:24.007Z,21.70
2018-09-13T03:29:52.343Z,18.17
2018-09-13T03:32:20.649Z,30.40
2018-09-13T03:34:49.052Z,18.07
2018-09-13T03:37:17.425Z,18.50
2018-09-13T03:39:45.695Z,18.90
2018-09-13T03:42:14.020Z,17.20
2018-09-13T03:44:42.276Z,17.57
2018-09-13T03:47:11.512Z,17.95
2018-09-13T03:49:39.823Z,17.57
2018-09-13T03:52:08.197Z,17.50
2018-09-13T03:54:36.633Z,16.63
2018-09-13T03:57:05.107Z,16.63
2018-09-13T03:59:33.396Z,17.83
2018-09-13T04:02:01.749Z,18.17
2018-09-13T04:04:30.016Z,19.32
2018-09-13T04:06:58.318Z,18.67
2018-09-13T04:09:26.699Z,18.90
2018-09-13T04:11:55.063Z,18.48
2018-09-13T04:14:23.396Z,20.03
2018-09-13T04:16:51.683Z,20.43
2018-09-13T04:19:20.087Z,20.08
2018-09-13T04:21:48.386Z,18.47
2018-09-13T04:24:16.727Z,18.17
2018-09-13T04:26:51.959Z,17.20
2018-09-13T04:29:20.262Z,18.50
2018-09-13T04:32:00.101Z,18.33
2018-09-13T04:34:28.396Z,20.20
2018-09-13T04:36:56.669Z,62.90
2018-09-13T04:39:25.262Z,20.15
2018-09-13T04:41:53.621Z,21.83
2018-09-13T04:44:21.943Z,22.80
2018-09-13T04:46:50.267Z,21.80
2018-09-13T04:49:18.594Z,22.87
2018-09-13T04:51:48.049Z,22.70
2018-09-13T04:54:16.369Z,21.73
2018-09-13T04:56:44.849Z,24.07
2018-09-13T04:59:13.240Z,21.73
2018-09-13T05:01:42.537Z,23.53
2018-09-13T05:04:11.510Z,23.27
2018-09-13T05:06:41.120Z,22.40
2018-09-13T05:09:11.321Z,999.90
2018-09-13T05:11:40.359Z,380.53
2018-09-13T05:14:11.058Z,37.50
2018-09-13T05:16:39.470Z,21.90
2018-09-13T05:19:08.025Z,999.90
2018-09-13T05:21:36.343Z,15.97
2018-09-13T05:24:05.696Z,20.97
2018-09-13T05:26:34.067Z,20.53
2018-09-13T05:29:02.441Z,20.48
2018-09-13T05:31:31.219Z,19.30
2018-09-13T05:33:59.706Z,19.32
2018-09-13T05:36:31.549Z,21.17
2018-09-13T05:38:59.807Z,20.87
2018-09-13T05:41:28.265Z,54.63
2018-09-13T05:43:57.153Z,113.37
2018-09-13T05:46:25.946Z,999.90
2018-09-13T05:48:54.366Z,999.90
2018-09-13T05:51:22.774Z,999.90
2018-09-13T05:53:51.468Z,999.90
2018-09-13T05:56:19.942Z,999.90
2018-09-13T05:58:48.548Z,999.90
2018-09-13T06:01:17.021Z,999.90
2018-09-13T06:03:45.573Z,17.33
2018-09-13T06:06:13.967Z,19.15
2018-09-13T06:08:42.648Z,18.03
2018-09-13T06:11:11.368Z,18.67
2018-09-13T06:13:40.158Z,17.77
2018-09-13T06:16:08.587Z,18.63
2018-09-13T06:18:37.165Z,17.80
2018-09-13T06:21:05.674Z,16.85
2018-09-13T06:23:34.151Z,16.77
2018-09-13T06:26:02.687Z,18.57
2018-09-13T06:28:34.505Z,20.87
2018-09-13T06:31:03.124Z,21.13
2018-09-13T06:33:32.524Z,21.10
2018-09-13T06:36:01.088Z,21.77
2018-09-13T06:38:29.580Z,20.23
2018-09-13T06:40:58.257Z,22.87
2018-09-13T06:43:27.503Z,22.17
2018-09-13T06:45:56.022Z,23.03
2018-09-13T06:48:28.173Z,21.77
2018-09-13T06:50:56.535Z,23.47
2018-09-13T06:53:27.581Z,23.87
2018-09-13T06:55:59.860Z,22.03
2018-09-13T06:58:28.365Z,21.77
2018-09-13T07:01:07.228Z,21.05
2018-09-13T07:03:35.889Z,21.80
2018-09-13T07:06:04.185Z,21.40
2018-09-13T07:08:32.449Z,22.40
2018-09-13T07:11:01.055Z,23.80
2018-09-13T07:13:29.426Z,23.73
2018-09-13T07:15:57.730Z,23.67
2018-09-13T07:18:26.186Z,22.83
2018-09-13T07:20:54.546Z,23.67
2018-09-13T07:23:23.480Z,23.73
2018-09-13T07:25:51.837Z,24.93
2018-09-13T07:28:20.594Z,24.12
2018-09-13T07:30:49.218Z,24.33
2018-09-13T07:33:18.430Z,999.90
2018-09-13T07:35:47.382Z,999.90
2018-09-13T07:38:15.956Z,999.90
2018-09-13T07:40:44.579Z,999.90
2018-09-13T07:43:13.808Z,20.40
2018-09-13T07:45:43.009Z,30.60
2018-09-13T07:48:12.573Z,999.90
2018-09-13T07:50:42.165Z,22.57
2018-09-13T07:53:10.995Z,22.60
2018-09-13T07:55:39.652Z,18.00
2018-09-13T07:58:07.937Z,39.80
2018-09-13T08:00:36.541Z,22.90
2018-09-13T08:03:05.785Z,999.90
2018-09-13T08:05:34.382Z,999.90
2018-09-13T08:08:02.905Z,25.72
2018-09-13T08:10:31.309Z,999.90
2018-09-13T08:13:00.118Z,999.90
2018-09-13T08:15:28.502Z,999.90
2018-09-13T08:17:56.924Z,999.90
2018-09-13T08:20:25.517Z,999.90
2018-09-13T08:23:00.271Z,999.90
2018-09-13T08:25:28.667Z,999.90
2018-09-13T08:27:57.149Z,28.65
2018-09-13T08:30:32.408Z,1.63
2018-09-13T08:33:01.593Z,0.67
2018-09-13T08:35:30.018Z,0.60
2018-09-13T08:37:58.461Z,0.65
2018-09-13T08:40:27.802Z,17.77
2018-09-13T08:42:56.500Z,17.48
2018-09-13T08:45:24.984Z,15.20
2018-09-13T08:47:53.618Z,15.53
2018-09-13T08:50:23.480Z,14.17
2018-09-13T08:52:51.788Z,13.63
2018-09-13T08:55:20.334Z,13.37
2018-09-13T08:57:48.763Z,16.30
2018-09-13T09:00:17.354Z,15.35
2018-09-13T09:02:46.356Z,15.83
2018-09-13T09:05:15.041Z,17.43
2018-09-13T09:07:43.592Z,17.10
2018-09-13T09:10:13.293Z,17.50
2018-09-13T09:12:43.060Z,17.80
2018-09-13T09:15:12.425Z,18.50
2018-09-13T09:17:41.835Z,19.07
2018-09-13T09:20:11.878Z,18.27
2018-09-13T09:22:43.030Z,18.00
2018-09-13T09:25:12.927Z,18.87
2018-09-13T09:27:42.128Z,18.93
2018-09-13T09:30:11.485Z,20.03
2018-09-13T09:32:40.495Z,17.50
2018-09-13T09:35:11.634Z,16.30
2018-09-13T09:37:41.028Z,15.63
2018-09-13T09:40:10.419Z,16.43
2018-09-13T09:42:38.794Z,15.87
2018-09-13T09:45:09.278Z,15.65
2018-09-13T09:47:38.101Z,15.83
2018-09-13T09:50:06.999Z,15.65
2018-09-13T09:52:36.870Z,17.27
2018-09-13T09:55:10.430Z,16.27
2018-09-13T09:57:38.853Z,17.30
2018-09-13T10:00:07.161Z,16.25
2018-09-13T10:02:35.539Z,16.77
2018-09-13T10:05:06.945Z,16.33
2018-09-13T10:07:35.810Z,17.07
2018-09-13T10:10:04.306Z,17.47
2018-09-13T10:12:32.552Z,15.85
2018-09-13T10:15:06.260Z,16.50
2018-09-13T10:17:43.594Z,14.97
2018-09-13T10:20:17.569Z,15.57
2018-09-13T10:22:51.319Z,14.73
2018-09-13T10:25:24.952Z,8.53
2018-09-13T10:27:58.684Z,13.30
2018-09-13T10:30:32.400Z,15.30
2018-09-13T10:33:06.173Z,15.77
2018-09-13T10:35:39.910Z,14.93
2018-09-13T10:38:14.196Z,14.93
2018-09-13T10:40:48.047Z,15.23
2018-09-13T10:44:23.666Z,13.57
2018-09-13T10:46:58.260Z,11.57
2018-09-13T10:49:32.134Z,12.27
2018-09-13T10:52:09.638Z,12.60
2018-09-13T10:54:40.305Z,12.13
2018-09-13T10:57:14.236Z,13.13
2018-09-13T10:59:43.693Z,11.30
2018-09-13T11:02:15.036Z,10.13
2018-09-13T11:04:47.152Z,11.33
2018-09-13T11:07:16.589Z,10.60
2018-09-13T11:09:47.612Z,10.00
2018-09-13T11:12:23.112Z,6.23
2018-09-13T11:14:54.077Z,356.00
2018-09-13T11:17:24.335Z,999.90
2018-09-13T11:22:35.777Z,999.90
2018-09-13T11:25:08.817Z,999.90
2018-09-13T11:27:38.306Z,999.90
2018-09-13T11:30:08.198Z,999.90
2018-09-13T11:33:00.112Z,999.90
2018-09-13T11:35:29.307Z,999.90
2018-09-13T11:37:58.365Z,999.90
2018-09-13T11:40:32.816Z,999.90
2018-09-13T11:43:02.566Z,999.90
2018-09-13T11:45:31.286Z,999.90
2018-09-13T11:48:00.160Z,999.90
2018-09-13T11:50:28.952Z,999.90
2018-09-13T11:52:57.829Z,999.90
2018-09-13T11:55:28.438Z,999.90
2018-09-13T11:57:56.909Z,999.90
2018-09-13T12:00:26.150Z,999.90
2018-09-13T12:02:54.688Z,999.90
2018-09-13T12:05:23.183Z,999.90
2018-09-13T12:07:52.254Z,999.90
2018-09-13T12:10:20.380Z,999.90
2018-09-13T12:12:48.835Z,999.90
2018-09-13T12:15:17.323Z,999.90
2018-09-13T12:23:01.332Z,999.90
2018-09-13T12:28:06.679Z,999.90
2018-09-13T12:30:48.143Z,999.90
2018-09-13T12:33:30.278Z,999.90
2018-09-13T12:35:58.606Z,999.90
2018-09-13T12:41:04.172Z,999.90
2018-09-13T12:46:14.005Z,999.90
2018-09-13T12:48:42.748Z,999.90
2018-09-13T12:51:11.162Z,999.90
2018-09-13T12:53:39.977Z,999.90
2018-09-13T12:56:08.353Z,999.90
2018-09-13T13:03:57.629Z,999.90
2018-09-13T13:06:41.839Z,999.90
2018-09-13T13:09:14.713Z,999.90
2018-09-13T13:14:32.552Z,999.90
2018-09-13T13:17:05.848Z,999.90
2018-09-13T13:19:34.350Z,999.90
2018-09-13T13:22:13.127Z,999.90
2018-09-13T13:27:23.500Z,999.90
2018-09-13T13:29:51.944Z,999.90
2018-09-13T13:32:20.328Z,999.90
2018-09-13T13:35:02.068Z,999.90
2018-09-13T13:37:30.737Z,999.90
2018-09-13T13:40:08.095Z,999.90
2018-09-13T13:45:38.191Z,999.90
2018-09-13T14:13:03.464Z,999.90
2018-09-13T14:15:40.764Z,999.90
2018-09-13T14:18:13.533Z,999.90
2018-09-13T14:20:42.162Z,999.90
2018-09-13T14:26:01.737Z,999.90
2018-09-13T14:42:21.465Z,999.90
2018-09-13T14:44:49.969Z,999.90
2018-09-13T14:47:18.381Z,999.90
2018-09-13T14:49:46.849Z,999.90
2018-09-13T14:52:15.221Z,999.90
2018-09-13T14:54:43.591Z,999.90
2018-09-13T14:57:11.957Z,999.90
2018-09-13T14:59:40.269Z,999.90
2018-09-13T15:02:08.586Z,999.90
2018-09-13T15:04:36.970Z,999.90
2018-09-13T15:07:05.485Z,999.90
2018-09-13T15:09:33.782Z,999.90
2018-09-13T15:12:02.203Z,999.90
2018-09-13T15:14:30.559Z,999.90
2018-09-13T15:16:58.961Z,999.90
2018-09-13T15:19:27.455Z,999.90
2018-09-13T15:21:56.076Z,999.90
2018-09-13T15:24:24.455Z,999.90
2018-09-13T15:26:52.815Z,999.90
2018-09-13T15:29:21.337Z,999.90
2018-09-13T15:31:49.710Z,999.90
2018-09-13T15:34:18.189Z,999.90
2018-09-13T15:36:46.527Z,999.90
2018-09-13T15:39:14.948Z,999.90
2018-09-13T15:41:43.399Z,999.90
2018-09-13T15:44:11.748Z,999.90
2018-09-13T15:46:40.135Z,999.90
2018-09-13T15:49:08.790Z,999.90
2018-09-13T15:51:37.527Z,999.90
2018-09-13T15:54:06.030Z,999.90
2018-09-13T15:56:34.476Z,999.90
2018-09-13T15:59:02.774Z,999.90
2018-09-13T16:01:31.127Z,999.90
2018-09-13T16:03:59.456Z,999.90
2018-09-13T16:06:27.920Z,999.90
2018-09-13T16:08:56.267Z,999.90
2018-09-13T16:11:25.049Z,999.90
2018-09-13T16:13:53.505Z,999.90
2018-09-13T16:16:21.891Z,999.90
2018-09-13T16:18:50.225Z,999.90
2018-09-13T16:21:18.622Z,999.90
2018-09-13T16:23:46.869Z,999.90
2018-09-13T16:26:15.370Z,999.90
2018-09-13T16:28:43.649Z,999.90
2018-09-13T16:31:12.076Z,999.90
2018-09-13T16:33:40.446Z,999.90
2018-09-13T16:36:14.264Z,999.90
2018-09-13T16:38:48.062Z,999.90
2018-09-13T16:41:21.739Z,999.90
2018-09-13T16:43:55.390Z,999.90
2018-09-13T16:46:29.099Z,999.90
2018-09-13T16:48:57.346Z,999.90
2018-09-13T16:51:25.690Z,999.90
2018-09-13T16:53:54.096Z,999.90
2018-09-13T16:56:22.460Z,999.90
2018-09-13T16:58:50.870Z,999.90
2018-09-13T17:01:19.395Z,999.90
2018-09-13T17:03:47.786Z,999.90
2018-09-13T17:06:16.289Z,999.90
2018-09-13T17:08:44.624Z,999.90
2018-09-13T17:11:13.374Z,999.90
2018-09-13T17:13:41.834Z,999.90
2018-09-13T17:16:10.320Z,999.90
2018-09-13T17:18:38.615Z,999.90
2018-09-13T17:21:07.181Z,999.90
2018-09-13T17:23:41.581Z,999.90
2018-09-13T17:26:24.513Z,999.90
2018-09-13T17:29:06.224Z,999.90
2018-09-13T17:31:40.123Z,999.90
2018-09-13T17:34:19.176Z,999.90
2018-09-13T17:36:54.505Z,999.90
2018-09-13T17:39:23.279Z,999.90
2018-09-13T17:41:51.841Z,999.90
2018-09-13T17:44:20.392Z,999.90
2018-09-13T17:46:49.022Z,999.90
2018-09-13T17:49:17.506Z,999.90
2018-09-13T17:51:45.956Z,999.90
2018-09-13T17:54:14.476Z,999.90
2018-09-13T17:56:42.968Z,999.90
2018-09-13T17:59:11.453Z,999.90
2018-09-13T18:04:35.689Z,14.03
2018-09-13T18:07:04.081Z,12.77
2018-09-13T18:09:32.594Z,9.40
2018-09-13T18:12:01.201Z,9.43
2018-09-13T18:14:30.124Z,17.02
2018-09-13T18:17:00.716Z,16.77
2018-09-13T18:19:29.556Z,16.33
2018-09-13T18:21:58.300Z,13.90
2018-09-13T18:24:26.903Z,16.95
2018-09-13T18:26:55.441Z,16.50
2018-09-13T18:29:23.828Z,17.50
2018-09-13T18:31:52.256Z,18.10
2018-09-13T18:34:20.795Z,18.67
2018-09-13T18:36:49.502Z,18.37
2018-09-13T18:39:18.005Z,19.50
2018-09-13T18:41:46.620Z,20.37
2018-09-13T18:44:15.015Z,20.48
2018-09-13T18:46:43.293Z,20.67
2018-09-13T18:49:11.967Z,20.43
2018-09-13T18:51:40.549Z,21.00
2018-09-13T18:54:08.901Z,21.02
2018-09-13T18:56:55.320Z,21.23
2018-09-13T18:59:23.830Z,21.67
2018-09-13T19:01:52.259Z,21.35
2018-09-13T19:04:20.725Z,20.97
2018-09-13T19:06:49.338Z,21.45
2018-09-13T19:09:17.697Z,22.13
2018-09-13T19:11:46.137Z,21.97
2018-09-13T19:14:14.624Z,21.80
2018-09-13T19:16:43.092Z,21.80
2018-09-13T19:19:12.150Z,21.77
2018-09-13T19:21:40.635Z,22.30
2018-09-13T19:24:09.313Z,21.80
2018-09-13T19:26:37.742Z,22.23
2018-09-13T19:29:06.160Z,23.92
2018-09-13T19:31:34.596Z,22.37
2018-09-13T19:34:03.159Z,23.45
2018-09-13T19:36:31.644Z,23.27
2018-09-13T19:39:00.148Z,23.25
2018-09-13T19:41:28.501Z,22.73
2018-09-13T19:43:56.980Z,22.53
2018-09-13T19:46:43.843Z,23.17
2018-09-13T19:49:12.294Z,23.13
2018-09-13T19:51:40.803Z,23.10
2018-09-13T19:54:09.116Z,23.03
2018-09-13T19:56:37.633Z,23.67
2018-09-13T19:59:06.567Z,24.03
2018-09-13T20:01:35.194Z,23.77
2018-09-13T20:04:05.824Z,24.32
2018-09-13T20:06:34.809Z,25.37
2018-09-13T20:09:03.495Z,23.80
2018-09-13T20:11:33.385Z,23.57
2018-09-13T20:14:03.241Z,24.60
2018-09-13T20:16:31.703Z,24.80
2018-09-13T20:19:01.388Z,25.55
2018-09-13T20:21:29.934Z,22.30
2018-09-13T20:23:58.448Z,23.45
2018-09-13T20:26:28.334Z,21.23
2018-09-13T20:28:56.749Z,22.57
2018-09-13T20:31:25.272Z,23.57
2018-09-13T20:33:53.761Z,24.03
2018-09-13T20:36:22.197Z,25.23
2018-09-13T20:38:50.603Z,24.77
2018-09-13T20:41:19.049Z,24.20
2018-09-13T20:43:47.485Z,23.03
2018-09-13T20:46:15.872Z,24.23
2018-09-13T20:48:44.465Z,24.87
2018-09-13T20:51:13.220Z,25.85
2018-09-13T20:53:41.737Z,25.23
2018-09-13T20:56:12.433Z,24.97
2018-09-13T20:58:42.662Z,23.93
2018-09-13T21:01:17.761Z,23.87
2018-09-13T21:03:56.476Z,24.80
2018-09-13T21:06:25.394Z,23.33
2018-09-13T21:08:56.197Z,24.47
2018-09-13T21:11:26.741Z,23.70
2018-09-13T21:13:55.531Z,26.53
2018-09-13T21:16:24.329Z,25.95
2018-09-13T21:18:54.039Z,24.05
2018-09-13T21:21:23.088Z,23.50
2018-09-13T21:23:52.085Z,25.07
2018-09-13T21:26:21.462Z,23.77
2018-09-13T21:29:00.889Z,24.03
2018-09-13T21:31:29.829Z,24.57
2018-09-13T21:33:59.487Z,25.70
2018-09-13T21:36:28.901Z,24.43
2018-09-13T21:38:57.392Z,24.27
2018-09-13T21:41:25.840Z,24.12
2018-09-13T21:43:54.489Z,24.33
2018-09-13T21:46:26.156Z,26.02
2018-09-13T21:48:54.897Z,25.83
2018-09-13T21:51:23.719Z,25.63
2018-09-13T21:53:52.372Z,25.72
2018-09-13T21:56:20.857Z,26.15
2018-09-13T21:58:49.512Z,25.10
2018-09-13T22:01:18.014Z,24.95
2018-09-13T22:03:46.748Z,25.23
2018-09-13T22:06:15.430Z,24.82
2018-09-13T22:08:44.503Z,23.52
2018-09-13T22:11:14.672Z,23.60
2018-09-13T22:13:43.310Z,25.10
2018-09-13T22:16:12.074Z,22.48
2018-09-13T22:18:40.879Z,23.92
2018-09-13T22:21:19.091Z,23.93
2018-09-13T22:23:52.959Z,25.40
2018-09-13T22:26:21.496Z,24.37
2018-09-13T22:28:49.992Z,25.62
2018-09-13T22:31:29.536Z,22.93
2018-09-13T22:33:58.118Z,24.67
2018-09-13T22:36:26.804Z,25.32
2018-09-13T22:38:55.329Z,25.07
2018-09-13T22:41:23.887Z,24.43
2018-09-13T22:44:10.480Z,24.27
2018-09-13T22:46:38.900Z,24.17
2018-09-13T22:49:07.589Z,23.38
2018-09-13T22:51:36.071Z,24.10
2018-09-13T22:54:04.558Z,24.15
2018-09-13T22:56:33.004Z,23.37
2018-09-13T22:59:01.499Z,21.68
2018-09-13T23:01:30.045Z,24.13
2018-09-13T23:04:07.899Z,24.87
2018-09-13T23:06:36.592Z,23.63
2018-09-13T23:09:08.357Z,24.25
2018-09-13T23:11:37.057Z,23.20
2018-09-13T23:14:05.596Z,24.30
2018-09-13T23:16:34.463Z,22.60
2018-09-13T23:19:03.014Z,23.17
2018-09-13T23:21:31.448Z,21.87
2018-09-13T23:24:00.105Z,23.27
2018-09-13T23:26:28.460Z,23.83
2018-09-13T23:28:57.337Z,23.40
2018-09-13T23:31:25.756Z,23.73
2018-09-13T23:33:54.416Z,22.53
2018-09-13T23:36:22.967Z,23.38
2018-09-13T23:38:51.438Z,24.77
2018-09-13T23:41:19.925Z,23.70
2018-09-13T23:43:48.329Z,24.37
2018-09-13T23:46:16.851Z,23.18
2018-09-13T23:48:45.806Z,24.60
2018-09-13T23:51:14.273Z,24.90
2018-09-13T23:53:42.885Z,25.10
2018-09-13T23:56:11.331Z,24.63
2018-09-13T23:58:40.093Z,23.20
